createdAt,value
2018-03-25T00:01:39.090Z,36.13
2018-03-25T00:04:07.655Z,33.72
2018-03-25T00:06:36.258Z,32.10
2018-03-25T00:09:05.748Z,33.25
2018-03-25T00:11:34.341Z,34.45
2018-03-25T00:14:02.905Z,36.97
2018-03-25T00:16:32.202Z,36.72
2018-03-25T00:19:00.637Z,33.70
2018-03-25T00:21:29.266Z,36.45
2018-03-25T00:23:58.464Z,35.00
2018-03-25T00:26:27.154Z,33.45
2018-03-25T00:28:55.549Z,30.88
2018-03-25T00:31:23.931Z,34.42
2018-03-25T00:33:52.409Z,35.67
2018-03-25T00:36:20.981Z,36.22
2018-03-25T00:38:49.555Z,35.53
2018-03-25T00:41:18.548Z,36.53
2018-03-25T00:43:47.132Z,37.08
2018-03-25T00:46:15.723Z,35.92
2018-03-25T00:48:44.296Z,34.80
2018-03-25T00:51:13.459Z,34.67
2018-03-25T00:53:41.839Z,35.92
2018-03-25T00:56:10.456Z,38.40
2018-03-25T00:58:39.042Z,34.22
2018-03-25T01:01:12.673Z,32.80
2018-03-25T01:03:42.045Z,33.75
2018-03-25T01:06:10.635Z,32.92
2018-03-25T01:08:39.206Z,37.30
2018-03-25T01:11:08.506Z,40.75
2018-03-25T01:13:36.984Z,33.70
2018-03-25T01:16:12.340Z,33.67
2018-03-25T01:18:41.012Z,40.15
2018-03-25T01:21:09.459Z,39.75
2018-03-25T01:23:38.077Z,40.30
2018-03-25T01:26:07.479Z,31.45
2018-03-25T01:28:35.976Z,33.10
2018-03-25T01:31:04.543Z,39.35
2018-03-25T01:33:33.037Z,30.67
2018-03-25T01:36:01.606Z,31.95
2018-03-25T01:38:30.191Z,32.72
2018-03-25T01:40:58.663Z,32.08
2018-03-25T01:43:27.154Z,35.55
2018-03-25T01:45:55.584Z,37.42
2018-03-25T01:48:24.031Z,36.05
2018-03-25T01:50:52.724Z,41.95
2018-03-25T01:53:21.287Z,31.45
2018-03-25T01:55:49.734Z,36.65
2018-03-25T01:58:18.134Z,35.33
2018-03-25T02:00:47.313Z,34.75
2018-03-25T02:03:16.653Z,36.22
2018-03-25T02:05:45.159Z,39.63
2018-03-25T02:08:13.698Z,36.58
2018-03-25T02:10:42.998Z,36.80
2018-03-25T02:13:11.426Z,37.08
2018-03-25T02:15:39.844Z,42.65
2018-03-25T02:18:08.545Z,45.10
2018-03-25T02:20:37.229Z,40.10
2018-03-25T02:23:05.817Z,43.65
2018-03-25T02:25:34.313Z,40.78
2018-03-25T02:28:02.778Z,45.53
2018-03-25T02:30:31.218Z,39.53
2018-03-25T02:32:59.620Z,38.55
2018-03-25T02:35:28.776Z,37.28
2018-03-25T02:37:57.983Z,41.17
2018-03-25T02:40:26.437Z,42.13
2018-03-25T02:42:54.993Z,40.25
2018-03-25T02:45:23.575Z,38.80
2018-03-25T02:47:52.078Z,39.55
2018-03-25T02:50:20.637Z,41.25
2018-03-25T02:52:49.138Z,47.53
2018-03-25T02:55:17.698Z,46.63
2018-03-25T02:57:46.186Z,42.38
2018-03-25T03:00:14.669Z,39.80
2018-03-25T03:02:43.243Z,40.78
2018-03-25T03:05:11.637Z,45.92
2018-03-25T03:07:40.031Z,45.12
2018-03-25T03:10:08.689Z,38.47
2018-03-25T03:12:37.191Z,43.53
2018-03-25T03:15:05.851Z,42.17
2018-03-25T03:17:34.445Z,39.30
2018-03-25T03:20:03.017Z,37.38
2018-03-25T03:22:31.702Z,42.70
2018-03-25T03:25:01.002Z,42.67
2018-03-25T03:27:29.576Z,44.35
2018-03-25T03:29:58.715Z,40.78
2018-03-25T03:32:27.183Z,48.58
2018-03-25T03:34:58.750Z,40.83
2018-03-25T03:37:27.293Z,41.20
2018-03-25T03:39:56.505Z,44.13
2018-03-25T03:42:25.084Z,40.83
2018-03-25T03:44:53.457Z,45.55
2018-03-25T03:47:22.682Z,39.53
2018-03-25T03:49:51.069Z,47.70
2018-03-25T03:52:19.614Z,43.53
2018-03-25T03:54:48.199Z,42.53
2018-03-25T03:57:16.780Z,43.92
2018-03-25T03:59:45.943Z,49.72
2018-03-25T04:02:14.453Z,41.33
2018-03-25T04:04:43.045Z,42.40
2018-03-25T04:07:11.627Z,41.42
2018-03-25T04:09:40.214Z,44.53
2018-03-25T04:12:08.706Z,48.65
2018-03-25T04:14:37.271Z,47.25
2018-03-25T04:17:06.162Z,43.97
2018-03-25T04:19:35.400Z,42.45
2018-03-25T04:22:03.870Z,43.97
2018-03-25T04:24:32.423Z,41.53
2018-03-25T04:27:01.730Z,40.67
2018-03-25T04:29:30.139Z,48.00
2018-03-25T04:31:58.685Z,43.97
2018-03-25T04:34:27.267Z,42.03
2018-03-25T04:36:55.851Z,46.55
2018-03-25T04:39:24.607Z,39.22
2018-03-25T04:41:52.984Z,45.15
2018-03-25T04:44:21.357Z,43.15
2018-03-25T04:46:49.794Z,44.55
2018-03-25T04:49:18.254Z,40.45
2018-03-25T04:51:47.438Z,43.78
2018-03-25T04:54:16.573Z,42.55
2018-03-25T04:56:44.954Z,38.28
2018-03-25T04:59:13.346Z,41.45
2018-03-25T05:01:41.887Z,39.00
2018-03-25T05:04:10.299Z,40.50
2018-03-25T05:06:38.661Z,39.15
2018-03-25T05:09:07.145Z,38.03
2018-03-25T05:11:35.515Z,38.50
2018-03-25T05:14:04.087Z,37.55
2018-03-25T05:16:32.572Z,40.97
2018-03-25T05:19:01.865Z,34.13
2018-03-25T05:21:30.269Z,41.33
2018-03-25T05:23:58.680Z,39.72
2018-03-25T05:26:27.310Z,36.35
2018-03-25T05:28:55.719Z,34.15
2018-03-25T05:31:24.377Z,38.22
2018-03-25T05:33:53.685Z,41.37
2018-03-25T05:36:22.180Z,34.63
2018-03-25T05:38:50.545Z,39.67
2018-03-25T05:41:19.037Z,42.08
2018-03-25T05:43:47.438Z,40.17
2018-03-25T05:46:15.806Z,39.35
2018-03-25T05:48:44.458Z,38.92
2018-03-25T05:51:13.601Z,37.63
2018-03-25T05:53:42.069Z,36.45
2018-03-25T05:56:10.608Z,34.80
2018-03-25T06:01:13.325Z,41.15
2018-03-25T06:06:15.248Z,42.15
2018-03-25T06:08:43.872Z,35.70
2018-03-25T06:11:12.350Z,38.28
2018-03-25T06:13:41.502Z,42.22
2018-03-25T06:16:10.083Z,41.37
2018-03-25T06:18:38.526Z,37.38
2018-03-25T06:21:07.096Z,38.95
2018-03-25T06:23:36.266Z,94.37
2018-03-25T06:26:04.718Z,45.38
2018-03-25T06:28:33.272Z,48.47
2018-03-25T06:31:01.644Z,45.10
2018-03-25T06:33:30.047Z,42.75
2018-03-25T06:35:58.466Z,41.95
2018-03-25T06:38:26.923Z,40.22
2018-03-25T06:40:55.299Z,37.40
2018-03-25T06:43:23.848Z,43.67
2018-03-25T06:45:52.290Z,38.90
2018-03-25T06:48:21.501Z,42.72
2018-03-25T06:50:50.802Z,42.38
2018-03-25T06:53:20.024Z,52.35
2018-03-25T06:55:48.504Z,40.60
2018-03-25T06:58:16.908Z,40.10
2018-03-25T07:00:45.306Z,42.05
2018-03-25T07:03:15.364Z,42.97
2018-03-25T07:05:44.517Z,39.17
2018-03-25T07:08:12.909Z,41.70
2018-03-25T07:10:41.526Z,44.35
2018-03-25T07:13:10.736Z,41.30
2018-03-25T07:15:39.240Z,42.33
2018-03-25T07:18:07.778Z,44.38
2018-03-25T07:20:36.358Z,42.75
2018-03-25T07:23:05.569Z,41.15
2018-03-25T07:25:33.996Z,47.15
2018-03-25T07:28:02.369Z,42.28
2018-03-25T07:30:30.782Z,41.83
2018-03-25T07:32:59.393Z,43.08
2018-03-25T07:35:27.783Z,43.00
2018-03-25T07:37:56.260Z,42.10
2018-03-25T07:40:24.630Z,40.05
2018-03-25T07:42:53.201Z,46.05
2018-03-25T07:45:21.628Z,42.53
2018-03-25T07:47:50.268Z,42.47
2018-03-25T07:50:18.715Z,40.67
2018-03-25T07:52:47.120Z,39.72
2018-03-25T07:55:16.338Z,42.72
2018-03-25T07:57:44.906Z,41.08
2018-03-25T08:00:14.050Z,42.58
2018-03-25T08:02:42.584Z,38.80
2018-03-25T08:05:11.727Z,40.10
2018-03-25T08:07:40.174Z,46.33
2018-03-25T08:10:08.741Z,39.92
2018-03-25T08:12:37.169Z,37.20
2018-03-25T08:15:05.702Z,40.25
2018-03-25T08:17:35.005Z,37.55
2018-03-25T08:20:03.587Z,36.15
2018-03-25T08:22:32.987Z,37.35
2018-03-25T08:25:01.486Z,40.55
2018-03-25T08:27:29.892Z,40.55
2018-03-25T08:29:58.432Z,38.63
2018-03-25T08:32:27.020Z,39.42
2018-03-25T08:34:55.460Z,36.10
2018-03-25T08:37:23.973Z,44.13
2018-03-25T08:39:53.278Z,39.67
2018-03-25T08:42:21.728Z,40.50
2018-03-25T08:44:50.338Z,40.33
2018-03-25T08:47:19.514Z,36.75
2018-03-25T08:49:47.890Z,36.15
2018-03-25T08:52:16.354Z,38.63
2018-03-25T08:54:44.772Z,37.90
2018-03-25T08:57:13.909Z,37.30
2018-03-25T08:59:42.552Z,35.67
2018-03-25T09:02:11.714Z,37.75
2018-03-25T09:04:40.238Z,34.65
2018-03-25T09:07:08.726Z,34.90
2018-03-25T09:09:37.291Z,35.83
2018-03-25T09:12:05.879Z,34.38
2018-03-25T09:14:34.466Z,36.05
2018-03-25T09:17:03.044Z,38.08
2018-03-25T09:19:31.938Z,34.28
2018-03-25T09:22:00.432Z,35.30
2018-03-25T09:24:29.002Z,33.90
2018-03-25T09:26:57.462Z,35.70
2018-03-25T09:29:26.677Z,35.05
2018-03-25T09:31:55.064Z,35.20
2018-03-25T09:34:23.482Z,35.03
2018-03-25T09:36:51.930Z,32.57
2018-03-25T09:39:20.415Z,34.23
2018-03-25T09:41:48.920Z,35.10
2018-03-25T09:44:17.379Z,34.00
2018-03-25T09:46:45.842Z,31.23
2018-03-25T09:49:14.421Z,35.07
2018-03-25T09:51:43.722Z,34.40
2018-03-25T09:54:12.622Z,29.63
2018-03-25T09:56:40.991Z,30.37
2018-03-25T09:59:09.394Z,28.87
2018-03-25T10:04:47.462Z,30.03
2018-03-25T10:07:15.973Z,27.70
2018-03-25T10:09:44.356Z,25.67
2018-03-25T10:12:12.846Z,26.60
2018-03-25T10:14:41.263Z,30.63
2018-03-25T10:17:09.711Z,28.07
2018-03-25T10:19:38.279Z,25.03
2018-03-25T10:22:06.765Z,20.30
2018-03-25T10:24:35.346Z,23.77
2018-03-25T10:27:03.747Z,22.33
2018-03-25T10:29:32.143Z,20.33
2018-03-25T10:32:00.787Z,23.00
2018-03-25T10:34:29.365Z,24.63
2018-03-25T10:36:58.563Z,22.97
2018-03-25T10:39:27.054Z,25.30
2018-03-25T10:41:55.727Z,23.57
2018-03-25T10:44:25.033Z,21.37
2018-03-25T10:46:53.613Z,21.47
2018-03-25T10:49:22.047Z,22.97
2018-03-25T10:51:50.573Z,22.70
2018-03-25T10:54:19.052Z,21.23
2018-03-25T10:56:48.351Z,22.57
2018-03-25T10:59:17.550Z,21.03
2018-03-25T11:01:46.703Z,21.47
2018-03-25T11:04:15.108Z,20.83
2018-03-25T11:06:43.530Z,24.20
2018-03-25T11:09:11.938Z,22.87
2018-03-25T11:11:45.087Z,25.40
2018-03-25T11:14:13.519Z,21.17
2018-03-25T11:16:41.926Z,22.53
2018-03-25T11:19:10.515Z,22.67
2018-03-25T11:21:39.218Z,22.93
2018-03-25T11:24:07.703Z,23.13
2018-03-25T11:26:36.184Z,24.10
2018-03-25T11:29:04.768Z,21.90
2018-03-25T11:31:33.151Z,24.80
2018-03-25T11:34:01.593Z,25.93
2018-03-25T11:36:30.773Z,26.03
2018-03-25T11:38:59.304Z,24.43
2018-03-25T11:41:27.689Z,25.50
2018-03-25T11:43:56.059Z,27.80
2018-03-25T11:46:24.623Z,25.50
2018-03-25T11:48:53.105Z,25.27
2018-03-25T11:51:22.509Z,25.20
2018-03-25T11:53:50.898Z,24.63
2018-03-25T11:56:19.470Z,26.97
2018-03-25T11:58:47.917Z,24.97
2018-03-25T12:01:16.322Z,25.57
2018-03-25T12:03:45.628Z,26.27
2018-03-25T12:06:14.310Z,24.90
2018-03-25T12:08:43.469Z,26.17
2018-03-25T12:11:12.734Z,29.70
2018-03-25T12:13:41.394Z,25.90
2018-03-25T12:16:09.846Z,25.80
2018-03-25T12:18:38.250Z,23.47
2018-03-25T12:21:07.468Z,24.67
2018-03-25T12:23:35.952Z,26.60
2018-03-25T12:26:04.328Z,22.63
2018-03-25T12:28:32.895Z,22.60
2018-03-25T12:31:02.292Z,24.93
2018-03-25T12:33:31.436Z,25.40
2018-03-25T12:35:59.970Z,22.03
2018-03-25T12:38:28.412Z,23.80
2018-03-25T12:40:58.469Z,25.87
2018-03-25T12:43:26.874Z,25.57
2018-03-25T12:45:55.438Z,24.03
2018-03-25T12:48:24.012Z,24.70
2018-03-25T12:50:52.430Z,22.57
2018-03-25T12:53:20.973Z,26.30
2018-03-25T12:55:49.477Z,26.90
2018-03-25T12:58:17.956Z,23.00
2018-03-25T13:00:46.623Z,26.53
2018-03-25T13:03:15.203Z,22.37
2018-03-25T13:05:43.791Z,23.20
2018-03-25T13:08:12.534Z,23.73
2018-03-25T13:10:40.914Z,25.70
2018-03-25T13:13:10.973Z,27.07
2018-03-25T13:15:40.379Z,24.87
2018-03-25T13:18:08.797Z,25.73
2018-03-25T13:20:37.439Z,25.70
2018-03-25T13:23:05.924Z,24.53
2018-03-25T13:25:34.606Z,23.70
2018-03-25T13:28:03.045Z,24.67
2018-03-25T13:30:31.669Z,24.73
2018-03-25T13:33:00.169Z,22.07
2018-03-25T13:35:28.647Z,25.13
2018-03-25T13:37:57.033Z,24.13
2018-03-25T13:40:25.613Z,21.90
2018-03-25T13:42:54.082Z,25.43
2018-03-25T13:45:22.514Z,24.20
2018-03-25T13:47:51.439Z,22.97
2018-03-25T13:50:20.598Z,23.10
2018-03-25T13:52:48.992Z,24.83
2018-03-25T13:55:17.600Z,24.23
2018-03-25T13:57:46.903Z,23.33
2018-03-25T14:00:15.326Z,25.77
2018-03-25T14:02:43.735Z,24.97
2018-03-25T14:05:12.162Z,25.50
2018-03-25T14:07:40.721Z,23.73
2018-03-25T14:10:10.023Z,24.40
2018-03-25T14:12:38.704Z,22.03
2018-03-25T14:15:07.879Z,24.40
2018-03-25T14:17:37.018Z,24.93
2018-03-25T14:20:05.576Z,23.47
2018-03-25T14:22:34.880Z,21.60
2018-03-25T14:25:03.570Z,24.00
2018-03-25T14:27:32.150Z,24.43
2018-03-25T14:30:01.362Z,23.70
2018-03-25T14:32:29.840Z,23.00
2018-03-25T14:34:58.332Z,24.47
2018-03-25T14:37:26.807Z,25.07
2018-03-25T14:39:55.371Z,21.33
2018-03-25T14:42:23.958Z,24.33
2018-03-25T14:44:52.540Z,22.57
2018-03-25T14:47:21.728Z,22.80
2018-03-25T14:49:50.910Z,22.87
2018-03-25T14:52:19.415Z,24.67
2018-03-25T14:54:47.997Z,25.03
2018-03-25T14:57:16.582Z,24.00
2018-03-25T14:59:45.269Z,21.40
2018-03-25T15:02:13.651Z,24.63
2018-03-25T15:04:42.225Z,22.97
2018-03-25T15:07:11.628Z,24.30
2018-03-25T15:09:40.019Z,23.33
2018-03-25T15:12:08.513Z,22.67
2018-03-25T15:14:37.071Z,22.53
2018-03-25T15:17:05.491Z,23.83
2018-03-25T15:19:33.926Z,26.43
2018-03-25T15:22:03.230Z,23.43
2018-03-25T15:24:31.648Z,22.63
2018-03-25T15:27:00.105Z,26.60
2018-03-25T15:29:28.674Z,25.60
2018-03-25T15:31:57.254Z,21.07
2018-03-25T15:34:26.439Z,25.80
2018-03-25T15:36:55.591Z,25.97
2018-03-25T15:39:24.126Z,27.03
2018-03-25T15:41:53.535Z,24.17
2018-03-25T15:44:21.959Z,23.47
2018-03-25T15:46:50.387Z,20.90
2018-03-25T15:49:19.590Z,25.23
2018-03-25T15:51:48.888Z,22.27
2018-03-25T15:54:17.475Z,21.37
2018-03-25T15:56:46.057Z,29.97
2018-03-25T15:59:15.359Z,21.60
2018-03-25T16:01:44.498Z,22.23
2018-03-25T16:04:12.918Z,23.47
2018-03-25T16:06:42.113Z,23.93
2018-03-25T16:09:11.452Z,23.23
2018-03-25T16:11:39.833Z,22.47
2018-03-25T16:14:08.411Z,22.97
2018-03-25T16:16:36.976Z,23.43
2018-03-25T16:19:05.350Z,23.30
2018-03-25T16:21:34.545Z,23.03
2018-03-25T16:24:03.972Z,23.43
2018-03-25T16:26:32.523Z,24.47
2018-03-25T16:29:01.676Z,25.23
2018-03-25T16:31:30.216Z,24.73
2018-03-25T16:33:58.704Z,20.77
2018-03-25T16:36:27.284Z,24.27
2018-03-25T16:38:55.861Z,22.70
2018-03-25T16:41:24.649Z,25.70
2018-03-25T16:43:53.232Z,22.57
2018-03-25T16:46:21.706Z,25.70
2018-03-25T16:48:50.907Z,23.97
2018-03-25T16:51:20.212Z,24.03
2018-03-25T16:53:49.507Z,26.07
2018-03-25T16:56:18.909Z,22.47
2018-03-25T16:58:48.046Z,19.60
2018-03-25T17:01:16.592Z,23.10
2018-03-25T17:03:45.087Z,20.97
2018-03-25T17:06:13.473Z,20.60
2018-03-25T17:08:41.858Z,20.93
2018-03-25T17:11:10.409Z,23.13
2018-03-25T17:13:38.872Z,20.80
2018-03-25T17:16:08.040Z,20.63
2018-03-25T17:18:36.740Z,27.57
2018-03-25T17:21:05.356Z,20.13
2018-03-25T17:23:33.836Z,18.53
2018-03-25T17:26:02.227Z,20.97
2018-03-25T17:28:30.639Z,20.53
2018-03-25T17:30:59.011Z,17.90
2018-03-25T17:33:27.577Z,21.77
2018-03-25T17:35:56.056Z,21.30
2018-03-25T17:38:24.620Z,21.33
2018-03-25T17:40:53.802Z,20.33
2018-03-25T17:43:23.009Z,24.07
2018-03-25T17:45:52.581Z,28.53
2018-03-25T17:48:21.105Z,29.70
2018-03-25T17:50:49.603Z,29.00
2018-03-25T17:53:18.043Z,25.90
2018-03-25T17:55:46.705Z,26.63
2018-03-25T17:58:15.231Z,24.80
2018-03-25T18:00:43.811Z,27.13
2018-03-25T18:03:12.397Z,27.80
2018-03-25T18:05:42.110Z,26.47
2018-03-25T18:08:10.691Z,25.00
2018-03-25T18:10:39.186Z,24.10
2018-03-25T18:13:07.655Z,25.53
2018-03-25T18:15:36.055Z,25.10
2018-03-25T18:18:04.506Z,26.30
2018-03-25T18:20:32.893Z,26.45
2018-03-25T18:23:01.279Z,25.02
2018-03-25T18:25:29.743Z,23.92
2018-03-25T18:27:58.140Z,25.73
2018-03-25T18:30:26.531Z,22.62
2018-03-25T18:32:54.952Z,28.70
2018-03-25T18:35:24.214Z,23.30
2018-03-25T18:37:52.679Z,24.02
2018-03-25T18:40:21.247Z,25.25
2018-03-25T18:42:49.627Z,25.27
2018-03-25T18:45:18.037Z,23.77
2018-03-25T18:47:46.446Z,26.52
2018-03-25T18:50:16.115Z,25.42
2018-03-25T18:52:44.675Z,26.50
2018-03-25T18:55:13.055Z,25.37
2018-03-25T18:57:41.552Z,22.60
2018-03-25T19:00:10.028Z,26.17
2018-03-25T19:02:38.400Z,23.87
2018-03-25T19:05:06.972Z,27.15
2018-03-25T19:07:36.134Z,24.05
2018-03-25T19:10:04.756Z,26.02
2018-03-25T19:12:33.150Z,24.40
2018-03-25T19:15:01.580Z,23.58
2018-03-25T19:17:30.911Z,28.85
2018-03-25T19:20:00.212Z,27.25
2018-03-25T19:22:28.798Z,26.90
2018-03-25T19:24:57.326Z,26.45
2018-03-25T19:27:25.861Z,25.37
2018-03-25T19:29:54.549Z,26.92
2018-03-25T19:32:23.686Z,27.25
2018-03-25T19:34:52.058Z,27.65
2018-03-25T19:37:20.927Z,26.70
2018-03-25T19:39:49.304Z,27.40
2018-03-25T19:42:17.790Z,27.30
2018-03-25T19:44:46.462Z,28.05
2018-03-25T19:47:15.673Z,25.77
2018-03-25T19:49:44.245Z,26.33
2018-03-25T19:52:12.742Z,26.48
2018-03-25T19:54:41.142Z,27.85
2018-03-25T19:57:09.780Z,29.33
2018-03-25T19:59:38.365Z,29.42
2018-03-25T20:02:06.783Z,26.55
2018-03-25T20:04:35.739Z,27.33
2018-03-25T20:07:04.171Z,30.05
2018-03-25T20:09:32.564Z,28.85
2018-03-25T20:12:01.140Z,28.08
2018-03-25T20:14:30.304Z,29.70
2018-03-25T20:16:58.796Z,28.17
2018-03-25T20:19:27.335Z,29.52
2018-03-25T20:21:56.634Z,26.25
2018-03-25T20:24:25.794Z,26.75
2018-03-25T20:26:55.001Z,32.17
2018-03-25T20:29:23.402Z,26.95
2018-03-25T20:31:52.610Z,27.15
2018-03-25T20:34:21.185Z,32.58
2018-03-25T20:36:50.322Z,27.00
2018-03-25T20:39:18.722Z,27.00
2018-03-25T20:41:47.160Z,32.65
2018-03-25T20:44:15.641Z,28.48
2018-03-25T20:46:44.049Z,28.20
2018-03-25T20:49:12.483Z,28.80
2018-03-25T20:51:40.869Z,35.33
2018-03-25T20:54:09.280Z,27.98
2018-03-25T20:56:38.092Z,26.23
2018-03-25T20:59:06.626Z,27.02
2018-03-25T21:01:35.083Z,29.67
2018-03-25T21:04:03.680Z,26.48
2018-03-25T21:06:32.065Z,27.50
2018-03-25T21:09:00.452Z,30.25
2018-03-25T21:11:28.888Z,31.37
2018-03-25T21:13:57.390Z,29.95
2018-03-25T21:16:25.815Z,29.48
2018-03-25T21:18:54.267Z,29.60
2018-03-25T21:21:22.639Z,34.42
2018-03-25T21:23:51.100Z,29.73
2018-03-25T21:26:20.409Z,30.85
2018-03-25T21:28:49.582Z,30.52
2018-03-25T21:31:18.805Z,33.95
2018-03-25T21:33:48.103Z,34.28
2018-03-25T21:36:17.250Z,33.75
2018-03-25T21:38:45.777Z,33.72
2018-03-25T21:41:14.984Z,34.30
2018-03-25T21:43:43.565Z,32.60
2018-03-25T21:46:12.727Z,31.15
2018-03-25T21:48:41.166Z,33.35
2018-03-25T21:51:12.378Z,31.42
2018-03-25T21:53:41.524Z,31.87
2018-03-25T21:56:10.056Z,33.15
2018-03-25T21:58:39.190Z,32.08
2018-03-25T22:01:07.761Z,30.60
2018-03-25T22:03:36.202Z,32.55
2018-03-25T22:06:05.392Z,29.58
2018-03-25T22:08:33.795Z,31.48
2018-03-25T22:11:02.378Z,33.60
2018-03-25T22:13:31.568Z,32.90
2018-03-25T22:16:00.693Z,29.83
2018-03-25T22:18:30.997Z,29.17
2018-03-25T22:20:59.407Z,35.88
2018-03-25T22:23:27.872Z,31.35
2018-03-25T22:25:56.241Z,32.45
2018-03-25T22:28:25.022Z,32.88
2018-03-25T22:30:54.316Z,30.50
2018-03-25T22:33:23.622Z,31.90
2018-03-25T22:35:52.051Z,31.62
2018-03-25T22:38:20.584Z,28.52
2018-03-25T22:40:49.880Z,32.10
2018-03-25T22:43:19.006Z,31.95
2018-03-25T22:45:47.663Z,33.17
2018-03-25T22:48:16.150Z,31.75
2018-03-25T22:50:44.639Z,32.97
2018-03-25T22:53:13.126Z,35.13
2018-03-25T22:55:41.589Z,33.03
2018-03-25T22:58:10.992Z,34.83
2018-03-25T23:00:40.287Z,32.72
2018-03-25T23:03:09.687Z,33.20
2018-03-25T23:05:39.018Z,34.20
2018-03-25T23:08:07.477Z,31.05
2018-03-25T23:10:35.970Z,35.75
2018-03-25T23:13:04.537Z,35.50
2018-03-25T23:15:33.679Z,36.10
2018-03-25T23:18:02.319Z,39.47
2018-03-25T23:20:30.826Z,36.88
2018-03-25T23:22:59.484Z,33.65
2018-03-25T23:25:27.979Z,33.92
2018-03-25T23:27:56.355Z,32.15
2018-03-25T23:30:24.920Z,32.03
2018-03-25T23:32:53.503Z,34.22
2018-03-25T23:35:21.993Z,32.83
2018-03-25T23:37:50.566Z,32.95
2018-03-25T23:40:19.973Z,33.65
2018-03-25T23:42:48.449Z,34.38
2018-03-25T23:45:17.605Z,36.55
2018-03-25T23:47:46.131Z,33.22
2018-03-25T23:50:14.573Z,35.55
2018-03-25T23:52:42.938Z,34.72
2018-03-25T23:55:11.362Z,35.15
2018-03-25T23:57:40.569Z,33.80
